Hallein, Austria
Current Conditions -  °F | °C
As of 5:50 PM on Wednesday 22 Oct 2014 (Local Time) from LOWS Reporting Station
Light Rain Light Rain  
Wind Chill: 36°   Ceiling: 5000
Heat Index: 43°   Visibility: 6mi
Dew Point: 36°   Wind: 13mph
Humidity: 76%   Direction: 280°W
Pressure: 29.91"   Gusts: 25mph
Location:  47.68°N, 13.11°E
Report Text: LOWS 221550Z 28011G22KT 240V330 9999 -RA FEW015 SCT031 BKN050 06/02 Q1013 TEMPO RA
Loading
Personal Weather Stations






























Interactive Weather Map
Tropical Storm Tracking
New forecast layout! Learn more

10-Day Weather Forecast

Advertisements
Track Severe Weather on mobile